Time;durP1;ratioP1;P1;durP2;ratioP2;P2;SDS_P1;SDS_P2;PMS_P1;PMS_P2;Temp;Humidity;BMP_temperature;BMP_pressure;BME280_temperature;BME280_humidity;BME280_pressure;Samples;Min_cycle;Max_cycle;Signal;HPM_P1;HPM_P2
2021/07/01 00:00:11;;;;;;;26.15;13.95;;;;;;;;;;5042073;28;20070;-72
2021/07/01 00:02:36;;;;;;;31.98;15.90;;;;;;;;;;5040708;28;20082;-69
2021/07/01 00:05:03;;;;;;;28.58;16.85;;;;;;;;;;5042575;28;20104;-69
2021/07/01 00:07:28;;;;;;;25.23;15.07;;;;;;;;;;5043825;28;20074;-71
2021/07/01 00:09:54;;;;;;;30.27;15.50;;;;;;;;;;5044794;28;20550;-70
2021/07/01 00:12:19;;;;;;;22.65;14.20;;;;;;;;;;5045099;28;20116;-71
2021/07/01 00:14:44;;;;;;;26.20;15.00;;;;;;;;;;5046562;28;20023;-70
2021/07/01 00:17:10;;;;;;;28.10;14.93;;;;;;;;;;5041266;28;20021;-70
2021/07/01 00:19:35;;;;;;;26.40;15.45;;;;;;;;;;5046719;28;20025;-71
2021/07/01 00:22:00;;;;;;;29.60;14.88;;;;;;;;;;5045819;28;20378;-70
2021/07/01 00:24:25;;;;;;;34.50;15.60;;;;;;;;;;5037219;28;20420;-69
2021/07/01 00:26:51;;;;;;;35.25;14.38;;;;;;;;;;5043970;28;20032;-70
2021/07/01 00:29:16;;;;;;;28.10;14.77;;;;;;;;;;5044003;28;20071;-69
2021/07/01 00:31:42;;;;;;;30.60;16.27;;;;;;;;;;5044027;28;20425;-69
2021/07/01 00:34:07;;;;;;;27.35;14.73;;;;;;;;;;5042625;28;20045;-69
2021/07/01 00:36:33;;;;;;;29.25;14.65;;;;;;;;;;5041992;28;20112;-69
2021/07/01 00:38:58;;;;;;;25.55;14.13;;;;;;;;;;5039695;28;20497;-69
2021/07/01 00:41:24;;;;;;;27.67;14.95;;;;;;;;;;5042714;28;20154;-69
2021/07/01 00:43:49;;;;;;;25.52;13.80;;;;;;;;;;5042658;28;20029;-70
2021/07/01 00:46:14;;;;;;;31.35;14.85;;;;;;;;;;5047992;28;20044;-70
2021/07/01 00:48:40;;;;;;;33.60;14.93;;;;;;;;;;5037880;28;20029;-69
2021/07/01 00:51:05;;;;;;;29.63;14.98;;;;;;;;;;5044870;28;20468;-70
2021/07/01 00:53:31;;;;;;;28.63;14.70;;;;;;;;;;5042828;28;20100;-68
2021/07/01 00:55:57;;;;;;;30.45;13.85;;;;;;;;;;5039448;28;20064;-71
2021/07/01 00:58:23;;;;;;;30.50;15.05;;;;;;;;;;5040896;28;20048;-71
2021/07/01 01:03:16;;;;;;;29.83;15.45;;;;;;;;;;5043789;28;20037;-70
2021/07/01 01:05:41;;;;;;;31.45;15.25;;;;;;;;;;5039855;28;20044;-69
2021/07/01 01:08:07;;;;;;;25.50;14.85;;;;;;;;;;5036993;28;20025;-70
2021/07/01 01:10:32;;;;;;;23.75;13.57;;;;;;;;;;5040629;28;20036;-70
2021/07/01 01:12:57;;;;;;;29.85;15.70;;;;;;;;;;5039908;28;20040;-70
2021/07/01 01:15:26;;;;;;;24.77;13.40;;;;;;;;;;5041736;28;20028;-70
2021/07/01 01:17:51;;;;;;;30.52;14.90;;;;;;;;;;5035216;28;20489;-69
2021/07/01 01:20:16;;;;;;;28.58;14.38;;;;;;;;;;5035971;28;20140;-69
2021/07/01 01:22:42;;;;;;;33.63;13.75;;;;;;;;;;5043333;28;20021;-69
2021/07/01 01:25:08;;;;;;;30.83;15.55;;;;;;;;;;5046584;28;20392;-70
2021/07/01 01:27:34;;;;;;;22.88;13.70;;;;;;;;;;5043849;28;20037;-69
2021/07/01 01:29:59;;;;;;;30.75;15.27;;;;;;;;;;5042752;28;20492;-69
2021/07/01 01:32:24;;;;;;;27.55;14.50;;;;;;;;;;5034336;28;20033;-70
2021/07/01 01:34:49;;;;;;;35.75;14.20;;;;;;;;;;5040888;28;20130;-70
2021/07/01 01:37:15;;;;;;;31.33;15.13;;;;;;;;;;5043087;28;20529;-70
2021/07/01 01:39:48;;;;;;;28.40;13.20;;;;;;;;;;5047969;28;20534;-70
2021/07/01 01:42:13;;;;;;;25.88;13.68;;;;;;;;;;5042422;28;20036;-69
2021/07/01 01:44:39;;;;;;;26.45;14.10;;;;;;;;;;5039301;28;20029;-69
2021/07/01 01:47:17;;;;;;;25.35;14.63;;;;;;;;;;5040232;28;20103;-69
2021/07/01 01:49:50;;;;;;;26.30;13.45;;;;;;;;;;5043000;28;20508;-69
2021/07/01 01:52:15;;;;;;;;;;;;;;;;;;5035224;28;20040;-69
2021/07/01 01:54:41;;;;;;;29.70;13.85;;;;;;;;;;5038204;28;19917;-69
2021/07/01 01:57:07;;;;;;;27.73;13.93;;;;;;;;;;5036417;28;20456;-70
2021/07/01 01:59:33;;;;;;;24.25;12.55;;;;;;;;;;5042415;28;20029;-69
2021/07/01 02:01:58;;;;;;;32.05;13.73;;;;;;;;;;5045541;28;20033;-69
2021/07/01 02:04:24;;;;;;;27.70;13.20;;;;;;;;;;5036513;28;20406;-69
2021/07/01 02:06:50;;;;;;;33.50;13.02;;;;;;;;;;5041970;28;20024;-70
2021/07/01 02:09:16;;;;;;;26.52;13.15;;;;;;;;;;5040370;28;20021;-70
2021/07/01 02:11:41;;;;;;;32.15;13.63;;;;;;;;;;5046817;28;20029;-69
2021/07/01 02:14:06;;;;;;;28.60;12.00;;;;;;;;;;5041609;28;20075;-69
2021/07/01 02:16:32;;;;;;;35.47;13.02;;;;;;;;;;5037213;28;20056;-70
2021/07/01 02:18:57;;;;;;;28.23;12.38;;;;;;;;;;5046032;28;20067;-70
2021/07/01 02:21:22;;;;;;;28.33;13.55;;;;;;;;;;5037799;28;20125;-70
2021/07/01 02:23:49;;;;;;;24.95;11.25;;;;;;;;;;5040441;28;20025;-68
2021/07/01 02:26:15;;;;;;;26.67;11.77;;;;;;;;;;5041567;28;20116;-70
2021/07/01 02:28:40;;;;;;;32.20;12.75;;;;;;;;;;5046009;28;20060;-70
2021/07/01 02:31:06;;;;;;;19.73;10.93;;;;;;;;;;5041053;28;20052;-69
2021/07/01 02:33:31;;;;;;;30.60;12.27;;;;;;;;;;5038377;28;20044;-70
2021/07/01 02:35:56;;;;;;;26.42;11.52;;;;;;;;;;5046682;28;20065;-69
2021/07/01 02:38:21;;;;;;;22.23;10.93;;;;;;;;;;5033893;28;20026;-69
2021/07/01 02:40:47;;;;;;;21.77;9.82;;;;;;;;;;5040404;28;20034;-69
2021/07/01 02:43:12;;;;;;;23.40;10.73;;;;;;;;;;5040661;28;20036;-69
2021/07/01 02:45:38;;;;;;;26.58;10.70;;;;;;;;;;5040083;28;20029;-68
2021/07/01 02:48:04;;;;;;;25.17;10.25;;;;;;;;;;5042832;28;20033;-69
2021/07/01 02:50:30;;;;;;;22.77;9.65;;;;;;;;;;5037253;28;20040;-70
2021/07/01 02:52:55;;;;;;;22.02;10.52;;;;;;;;;;5045080;28;20025;-69
2021/07/01 02:55:20;;;;;;;25.67;10.20;;;;;;;;;;5042100;28;20056;-69
2021/07/01 02:57:46;;;;;;;21.65;9.95;;;;;;;;;;5040474;28;20060;-69
2021/07/01 03:00:15;;;;;;;25.67;10.20;;;;;;;;;;5040175;28;20392;-69
2021/07/01 03:02:41;;;;;;;22.05;10.25;;;;;;;;;;5035525;28;20079;-69
2021/07/01 03:05:06;;;;;;;26.85;10.80;;;;;;;;;;5041397;28;20029;-69
2021/07/01 03:07:32;;;;;;;20.98;10.50;;;;;;;;;;5045403;28;20040;-69
2021/07/01 03:09:57;;;;;;;26.48;11.05;;;;;;;;;;5036913;28;20091;-69
2021/07/01 03:12:23;;;;;;;24.95;10.35;;;;;;;;;;5043850;28;20040;-70
2021/07/01 03:14:49;;;;;;;25.90;10.55;;;;;;;;;;5039679;28;20038;-69
2021/07/01 03:17:15;;;;;;;25.98;10.80;;;;;;;;;;5042808;28;20029;-69
2021/07/01 03:19:40;;;;;;;22.45;9.68;;;;;;;;;;5040828;28;20037;-68
2021/07/01 03:22:05;;;;;;;32.08;10.18;;;;;;;;;;5049176;28;20070;-69
2021/07/01 03:24:31;;;;;;;20.63;9.40;;;;;;;;;;5046339;28;20071;-68
2021/07/01 03:26:59;;;;;;;30.20;9.27;;;;;;;;;;5041704;28;20036;-69
2021/07/01 03:29:25;;;;;;;19.55;8.38;;;;;;;;;;5042938;28;20110;-68
2021/07/01 03:31:50;;;;;;;19.67;10.38;;;;;;;;;;5040897;28;20076;-68
2021/07/01 03:34:15;;;;;;;25.58;9.80;;;;;;;;;;5046029;28;20033;-69
2021/07/01 03:36:41;;;;;;;22.85;10.02;;;;;;;;;;5041245;28;20029;-70
2021/07/01 03:39:06;;;;;;;19.83;9.57;;;;;;;;;;5040040;28;20509;-70
2021/07/01 03:41:32;;;;;;;19.20;9.70;;;;;;;;;;5047118;28;20036;-69
2021/07/01 03:43:57;;;;;;;22.75;10.52;;;;;;;;;;5037846;28;20021;-68
2021/07/01 03:46:22;;;;;;;20.25;9.65;;;;;;;;;;5045026;28;20039;-70
2021/07/01 03:48:48;;;;;;;20.90;9.60;;;;;;;;;;5047108;28;20028;-69
2021/07/01 03:51:13;;;;;;;22.65;9.50;;;;;;;;;;5041190;28;20036;-69
2021/07/01 03:53:39;;;;;;;17.60;9.75;;;;;;;;;;5042270;28;20064;-69
2021/07/01 03:56:04;;;;;;;20.70;9.52;;;;;;;;;;5038148;28;20543;-69
2021/07/01 03:58:29;;;;;;;18.55;9.55;;;;;;;;;;5044454;28;20032;-69
2021/07/01 04:00:55;;;;;;;16.90;9.65;;;;;;;;;;5041234;28;20021;-69
2021/07/01 04:03:20;;;;;;;21.65;10.05;;;;;;;;;;5044570;28;20028;-68
2021/07/01 04:05:45;;;;;;;23.67;9.73;;;;;;;;;;5047129;28;20024;-69
2021/07/01 04:08:11;;;;;;;23.33;11.02;;;;;;;;;;5042456;28;20033;-69
2021/07/01 04:10:36;;;;;;;26.40;9.35;;;;;;;;;;5039842;28;20021;-70
2021/07/01 04:13:01;;;;;;;23.63;10.38;;;;;;;;;;5037989;28;20033;-69
2021/07/01 04:15:27;;;;;;;19.15;10.75;;;;;;;;;;5043183;28;20108;-69
2021/07/01 04:17:52;;;;;;;22.30;10.30;;;;;;;;;;5042060;28;20056;-70
2021/07/01 04:20:18;;;;;;;27.90;11.50;;;;;;;;;;5038223;28;20433;-70
2021/07/01 04:22:43;;;;;;;26.83;10.73;;;;;;;;;;5042102;28;20029;-70
2021/07/01 04:25:09;;;;;;;25.85;11.68;;;;;;;;;;5046271;28;20040;-70
2021/07/01 04:27:34;;;;;;;25.65;12.60;;;;;;;;;;5046389;28;20025;-71
2021/07/01 04:30:00;;;;;;;22.65;11.25;;;;;;;;;;5039059;28;20032;-70
2021/07/01 04:32:25;;;;;;;25.95;11.98;;;;;;;;;;5038854;28;20029;-70
2021/07/01 04:34:50;;;;;;;28.15;12.32;;;;;;;;;;5042174;28;20026;-68
2021/07/01 04:37:16;;;;;;;16.92;10.32;;;;;;;;;;5037777;28;20029;-71
2021/07/01 04:39:41;;;;;;;24.25;12.43;;;;;;;;;;5042196;28;20048;-70
2021/07/01 04:42:06;;;;;;;24.67;11.77;;;;;;;;;;5041665;28;20036;-70
2021/07/01 04:44:32;;;;;;;22.45;10.10;;;;;;;;;;5044947;28;20455;-70
2021/07/01 04:46:58;;;;;;;24.20;10.43;;;;;;;;;;5040754;28;20489;-70
2021/07/01 04:49:23;;;;;;;24.60;10.15;;;;;;;;;;5047987;28;20458;-71
2021/07/01 04:51:48;;;;;;;17.85;10.75;;;;;;;;;;5044820;28;20116;-70
2021/07/01 04:54:14;;;;;;;18.08;10.05;;;;;;;;;;5041173;28;20027;-71
2021/07/01 04:56:45;;;;;;;19.95;9.85;;;;;;;;;;5034591;28;20018;-70
2021/07/01 04:59:11;;;;;;;19.63;10.27;;;;;;;;;;5044638;28;20507;-70
2021/07/01 05:01:37;;;;;;;23.15;10.57;;;;;;;;;;5039836;28;20470;-72
2021/07/01 05:04:03;;;;;;;26.13;10.40;;;;;;;;;;5042829;28;20029;-71
2021/07/01 05:06:28;;;;;;;15.15;9.18;;;;;;;;;;5042012;28;20029;-71
2021/07/01 05:08:53;;;;;;;14.38;8.95;;;;;;;;;;5044333;28;20033;-70
2021/07/01 05:11:19;;;;;;;17.65;9.20;;;;;;;;;;5044944;28;20048;-70
2021/07/01 05:13:44;;;;;;;16.50;9.25;;;;;;;;;;5039797;28;20112;-70
2021/07/01 05:16:09;;;;;;;21.63;10.00;;;;;;;;;;5041614;28;20043;-70
2021/07/01 05:18:35;;;;;;;17.73;9.93;;;;;;;;;;5041527;28;20075;-69
2021/07/01 05:21:00;;;;;;;23.02;10.07;;;;;;;;;;5048242;28;20521;-71
2021/07/01 05:23:26;;;;;;;21.98;9.88;;;;;;;;;;5036032;28;20028;-70
2021/07/01 05:25:51;;;;;;;20.13;10.57;;;;;;;;;;5041068;28;20026;-71
2021/07/01 05:28:16;;;;;;;23.48;10.85;;;;;;;;;;5042692;28;20072;-71
2021/07/01 05:30:42;;;;;;;29.80;15.15;;;;;;;;;;5042590;28;20116;-71
2021/07/01 05:33:07;;;;;;;22.25;10.38;;;;;;;;;;5038118;28;20025;-70
2021/07/01 05:35:32;;;;;;;25.67;11.75;;;;;;;;;;5039722;28;20496;-70
2021/07/01 05:37:58;;;;;;;27.63;11.93;;;;;;;;;;5050212;28;20090;-71
2021/07/01 05:40:24;;;;;;;22.88;12.13;;;;;;;;;;5042250;28;20024;-70
2021/07/01 05:42:49;;;;;;;24.55;10.82;;;;;;;;;;5040259;28;20036;-70
2021/07/01 05:45:15;;;;;;;24.75;11.20;;;;;;;;;;5045694;28;20029;-70
2021/07/01 05:47:41;;;;;;;23.33;11.80;;;;;;;;;;5039507;28;20488;-68
2021/07/01 05:50:09;;;;;;;26.60;10.98;;;;;;;;;;5043432;28;20389;-71
2021/07/01 05:52:36;;;;;;;20.52;10.93;;;;;;;;;;5043492;28;20438;-70
2021/07/01 05:55:03;;;;;;;22.27;11.35;;;;;;;;;;5044443;28;20120;-70
2021/07/01 05:57:29;;;;;;;29.00;10.88;;;;;;;;;;5044169;28;20481;-69
2021/07/01 05:59:54;;;;;;;24.88;11.02;;;;;;;;;;5035707;28;20028;-70
2021/07/01 06:02:20;;;;;;;24.80;11.07;;;;;;;;;;5042658;28;20033;-72
2021/07/01 06:04:45;;;;;;;23.17;10.45;;;;;;;;;;5045818;28;20509;-70
2021/07/01 06:07:16;;;;;;;22.27;11.05;;;;;;;;;;5043819;28;20107;-70
2021/07/01 06:09:45;;;;;;;16.00;9.98;;;;;;;;;;5039753;28;20540;-70
2021/07/01 06:12:10;;;;;;;25.10;11.65;;;;;;;;;;5036019;28;20080;-70
2021/07/01 06:14:36;;;;;;;24.38;10.65;;;;;;;;;;5040389;28;20049;-70
2021/07/01 06:17:04;;;;;;;18.20;10.60;;;;;;;;;;5043241;28;20025;-70
2021/07/01 06:19:30;;;;;;;19.45;9.95;;;;;;;;;;5032444;28;20025;-70
2021/07/01 06:21:56;;;;;;;16.88;9.32;;;;;;;;;;5041581;28;20027;-71
2021/07/01 06:24:21;;;;;;;24.52;9.98;;;;;;;;;;5041849;28;20029;-70
2021/07/01 06:26:48;;;;;;;15.70;8.88;;;;;;;;;;5035517;28;20441;-69
2021/07/01 06:29:14;;;;;;;23.77;9.40;;;;;;;;;;5041618;28;20047;-72
2021/07/01 06:31:40;;;;;;;15.38;9.05;;;;;;;;;;5043158;28;20025;-71
2021/07/01 06:34:06;;;;;;;17.60;9.90;;;;;;;;;;5040848;28;20041;-69
2021/07/01 06:36:34;;;;;;;27.52;9.52;;;;;;;;;;5044376;28;20362;-71
2021/07/01 06:39:03;;;;;;;13.48;8.27;;;;;;;;;;5049671;28;20028;-71
2021/07/01 06:41:29;;;;;;;11.45;8.07;;;;;;;;;;5045305;28;20081;-70
2021/07/01 06:43:55;;;;;;;13.32;7.68;;;;;;;;;;5044239;28;20448;-70
2021/07/01 06:46:21;;;;;;;16.35;9.45;;;;;;;;;;5046569;28;20035;-70
2021/07/01 06:48:47;;;;;;;13.85;8.05;;;;;;;;;;5046928;28;20022;-69
2021/07/01 06:51:14;;;;;;;17.40;7.75;;;;;;;;;;5047018;28;20107;-69
2021/07/01 06:53:43;;;;;;;16.13;8.00;;;;;;;;;;5044599;28;20031;-69
2021/07/01 06:56:09;;;;;;;18.95;7.68;;;;;;;;;;5040880;28;20072;-70
2021/07/01 06:58:37;;;;;;;13.70;8.30;;;;;;;;;;5049845;28;20041;-70
2021/07/01 07:01:03;;;;;;;15.63;7.22;;;;;;;;;;5041428;28;20025;-71
2021/07/01 07:03:29;;;;;;;12.05;7.38;;;;;;;;;;5046145;28;20033;-68
2021/07/01 07:05:56;;;;;;;14.65;7.15;;;;;;;;;;5046633;28;20076;-68
2021/07/01 07:08:21;;;;;;;11.13;7.22;;;;;;;;;;5047533;28;20461;-71
2021/07/01 07:10:48;;;;;;;16.02;7.95;;;;;;;;;;5044664;28;20032;-71
2021/07/01 07:13:14;;;;;;;15.05;7.10;;;;;;;;;;5046990;28;20032;-70
2021/07/01 07:15:41;;;;;;;13.30;7.13;;;;;;;;;;5047635;28;20393;-71
2021/07/01 07:18:26;;;;;;;17.77;8.05;;;;;;;;;;5043253;28;20032;-70
2021/07/01 07:20:54;;;;;;;12.30;6.20;;;;;;;;;;5045538;28;20033;-70
2021/07/01 07:23:30;;;;;;;10.35;7.25;;;;;;;;;;5049094;28;20040;-69
2021/07/01 07:25:56;;;;;;;15.77;8.07;;;;;;;;;;5046695;28;20497;-69
2021/07/01 07:28:24;;;;;;;11.90;7.43;;;;;;;;;;5041238;28;20036;-70
2021/07/01 07:30:52;;;;;;;11.73;7.53;;;;;;;;;;5038724;28;20100;-74
2021/07/01 07:33:21;;;;;;;15.48;7.70;;;;;;;;;;5045072;28;20048;-70
2021/07/01 07:35:47;;;;;;;11.57;7.13;;;;;;;;;;5037884;28;20045;-70
2021/07/01 07:38:13;;;;;;;14.80;8.88;;;;;;;;;;5045842;28;20029;-69
2021/07/01 07:40:39;;;;;;;11.15;7.25;;;;;;;;;;5045388;28;20400;-70
2021/07/01 07:43:06;;;;;;;12.82;6.80;;;;;;;;;;5046924;28;20518;-71
2021/07/01 07:45:31;;;;;;;9.68;6.03;;;;;;;;;;5039927;28;20017;-71
2021/07/01 07:47:57;;;;;;;10.38;6.35;;;;;;;;;;5044949;28;20029;-69
2021/07/01 07:50:22;;;;;;;12.10;6.43;;;;;;;;;;5045607;28;20022;-71
2021/07/01 07:52:50;;;;;;;9.43;6.28;;;;;;;;;;5042245;28;20033;-70
2021/07/01 07:55:17;;;;;;;9.38;6.25;;;;;;;;;;5042570;28;20021;-70
2021/07/01 07:57:50;;;;;;;11.02;6.05;;;;;;;;;;5044135;28;20045;-70
2021/07/01 08:00:15;;;;;;;12.95;6.18;;;;;;;;;;5042318;28;20048;-69
2021/07/01 08:02:50;;;;;;;14.13;6.97;;;;;;;;;;5041880;28;20029;-70
2021/07/01 08:05:20;;;;;;;9.57;5.88;;;;;;;;;;5042524;28;20403;-70
2021/07/01 08:07:45;;;;;;;9.20;5.65;;;;;;;;;;5047366;28;20389;-70
2021/07/01 08:10:14;;;;;;;11.27;6.85;;;;;;;;;;5042089;28;20025;-69
2021/07/01 08:12:47;;;;;;;15.52;5.95;;;;;;;;;;5042004;28;20025;-70
2021/07/01 08:15:14;;;;;;;9.30;5.25;;;;;;;;;;5048432;28;20067;-70
2021/07/01 08:17:44;;;;;;;11.25;5.28;;;;;;;;;;5041079;28;20028;-70
2021/07/01 08:20:11;;;;;;;10.00;4.75;;;;;;;;;;5047347;28;20029;-70
2021/07/01 08:22:38;;;;;;;8.95;4.22;;;;;;;;;;5045409;28;20070;-70
2021/07/01 08:25:04;;;;;;;7.55;4.53;;;;;;;;;;5043277;28;20040;-70
2021/07/01 08:27:30;;;;;;;6.10;4.07;;;;;;;;;;5044413;28;20033;-70
2021/07/01 08:29:56;;;;;;;6.97;3.90;;;;;;;;;;5041234;28;20030;-69
2021/07/01 08:32:22;;;;;;;6.38;3.85;;;;;;;;;;5044208;28;20032;-70
2021/07/01 08:34:47;;;;;;;6.32;3.88;;;;;;;;;;5039151;28;20504;-70
2021/07/01 08:37:15;;;;;;;4.93;3.60;;;;;;;;;;5042033;28;20029;-70
2021/07/01 08:39:41;;;;;;;4.95;3.53;;;;;;;;;;5043668;28;20108;-70
2021/07/01 08:42:12;;;;;;;5.00;3.58;;;;;;;;;;5035637;28;20091;-70
2021/07/01 08:44:55;;;;;;;3.80;2.88;;;;;;;;;;5043198;28;20038;-69
2021/07/01 08:47:26;;;;;;;3.75;2.83;;;;;;;;;;5043065;28;20045;-70
2021/07/01 08:49:55;;;;;;;4.82;2.80;;;;;;;;;;5043516;28;20119;-69
2021/07/01 08:52:26;;;;;;;4.68;2.75;;;;;;;;;;5043832;28;20025;-69
2021/07/01 08:54:57;;;;;;;5.53;3.70;;;;;;;;;;5049229;28;20028;-69
2021/07/01 08:57:35;;;;;;;3.53;2.70;;;;;;;;;;5041991;28;20033;-70
2021/07/01 09:00:10;;;;;;;3.53;2.75;;;;;;;;;;5040704;28;20029;-70
2021/07/01 09:02:38;;;;;;;2.65;2.38;;;;;;;;;;5041440;28;20512;-70
2021/07/01 09:05:15;;;;;;;4.68;3.00;;;;;;;;;;5041307;28;20441;-70
2021/07/01 09:07:47;;;;;;;4.30;2.60;;;;;;;;;;5042092;28;20091;-70
2021/07/01 09:10:15;;;;;;;2.70;2.45;;;;;;;;;;5041217;28;20093;-70
2021/07/01 09:12:51;;;;;;;5.35;2.65;;;;;;;;;;5041251;28;20033;-70
2021/07/01 09:15:16;;;;;;;7.72;3.75;;;;;;;;;;5048101;28;20033;-70
2021/07/01 09:17:48;;;;;;;4.88;3.03;;;;;;;;;;5044593;28;20027;-69
2021/07/01 09:20:19;;;;;;;6.78;3.15;;;;;;;;;;5048452;28;20136;-69
2021/07/01 09:22:46;;;;;;;6.90;2.75;;;;;;;;;;5040856;28;20386;-69
2021/07/01 09:25:12;;;;;;;5.22;2.90;;;;;;;;;;5043097;28;20104;-68
2021/07/01 09:27:44;;;;;;;4.47;2.60;;;;;;;;;;5043474;28;20109;-68
2021/07/01 09:30:11;;;;;;;5.18;2.75;;;;;;;;;;5037459;28;20428;-67
2021/07/01 09:32:38;;;;;;;5.43;3.35;;;;;;;;;;5049104;28;20029;-69
2021/07/01 09:35:04;;;;;;;7.05;2.45;;;;;;;;;;5040641;28;20488;-69
2021/07/01 09:37:39;;;;;;;3.63;2.45;;;;;;;;;;5038074;28;20036;-68
2021/07/01 09:40:06;;;;;;;9.18;2.75;;;;;;;;;;5050977;28;20032;-69
2021/07/01 09:42:33;;;;;;;6.78;2.90;;;;;;;;;;5036143;28;20022;-69
2021/07/01 09:45:06;;;;;;;3.72;2.40;;;;;;;;;;5044373;28;20039;-68
2021/07/01 09:47:36;;;;;;;3.92;2.47;;;;;;;;;;5041578;28;20108;-68
2021/07/01 09:50:03;;;;;;;3.95;2.75;;;;;;;;;;5035187;28;20029;-69
2021/07/01 09:52:33;;;;;;;4.45;2.55;;;;;;;;;;5041090;28;20029;-69
2021/07/01 09:55:01;;;;;;;6.07;2.75;;;;;;;;;;5042871;28;20027;-69
2021/07/01 09:57:29;;;;;;;2.92;2.22;;;;;;;;;;5036215;28;20429;-68
2021/07/01 09:59:58;;;;;;;3.90;2.60;;;;;;;;;;5040616;28;20025;-69
2021/07/01 10:02:24;;;;;;;4.85;2.90;;;;;;;;;;5042076;28;20548;-68
2021/07/01 10:04:50;;;;;;;4.10;2.50;;;;;;;;;;5043699;28;20380;-69
2021/07/01 10:07:19;;;;;;;3.80;2.47;;;;;;;;;;5037910;28;20017;-68
2021/07/01 10:09:46;;;;;;;4.82;2.70;;;;;;;;;;5042524;28;20021;-69
2021/07/01 10:12:29;;;;;;;5.28;2.30;;;;;;;;;;5048542;28;20028;-69
2021/07/01 10:14:58;;;;;;;4.43;2.63;;;;;;;;;;5045284;28;20029;-69
2021/07/01 10:17:24;;;;;;;2.53;2.22;;;;;;;;;;5045525;28;20028;-69
2021/07/01 10:20:02;;;;;;;4.18;2.35;;;;;;;;;;5046796;28;20385;-69
2021/07/01 10:22:35;;;;;;;4.43;2.88;;;;;;;;;;5045805;28;20032;-69
2021/07/01 10:25:00;;;;;;;;;;;;;;;;;;5048149;28;20075;-69
2021/07/01 10:27:31;;;;;;;5.68;2.90;;;;;;;;;;5038974;28;19948;-68
2021/07/01 10:29:59;;;;;;;3.50;2.50;;;;;;;;;;5043839;28;20052;-69
2021/07/01 10:32:38;;;;;;;6.22;3.17;;;;;;;;;;5045082;28;20020;-69
2021/07/01 10:35:17;;;;;;;5.68;2.83;;;;;;;;;;5038252;28;20032;-69
2021/07/01 10:38:14;;;;;;;4.32;2.97;;;;;;;;;;5044051;28;20049;-69
2021/07/01 10:40:49;;;;;;;6.75;3.47;;;;;;;;;;5041114;28;20120;-69
2021/07/01 10:43:17;;;;;;;4.82;3.22;;;;;;;;;;5041332;28;20034;-69
2021/07/01 10:46:00;;;;;;;4.03;3.33;;;;;;;;;;5043785;28;20513;-69
2021/07/01 10:48:27;;;;;;;5.90;3.47;;;;;;;;;;5038192;28;20506;-68
2021/07/01 10:50:54;;;;;;;5.60;3.47;;;;;;;;;;5044187;28;20083;-71
2021/07/01 10:53:37;;;;;;;5.38;3.28;;;;;;;;;;5043907;28;20029;-70
2021/07/01 10:56:40;;;;;;;5.47;3.75;;;;;;;;;;5043970;28;20112;-70
2021/07/01 10:59:06;;;;;;;7.88;3.88;;;;;;;;;;5041251;28;20025;-69
2021/07/01 11:01:32;;;;;;;4.82;3.50;;;;;;;;;;5045038;28;20036;-70
2021/07/01 11:04:13;;;;;;;5.13;3.55;;;;;;;;;;5045019;28;20035;-69
2021/07/01 11:06:41;;;;;;;5.88;3.50;;;;;;;;;;5041163;28;20436;-71
2021/07/01 11:09:09;;;;;;;7.25;4.03;;;;;;;;;;5043672;28;20053;-70
2021/07/01 11:11:36;;;;;;;8.85;4.70;;;;;;;;;;5044375;28;20445;-70
2021/07/01 11:14:13;;;;;;;5.63;3.92;;;;;;;;;;5043514;28;20029;-70
2021/07/01 11:16:41;;;;;;;7.60;4.43;;;;;;;;;;5046692;28;20052;-70
2021/07/01 11:19:09;;;;;;;8.18;4.75;;;;;;;;;;5043069;28;20116;-69
2021/07/01 11:21:35;;;;;;;12.90;4.93;;;;;;;;;;5047721;28;20028;-69
2021/07/01 11:24:13;;;;;;;7.60;4.65;;;;;;;;;;5045223;28;20040;-69
2021/07/01 11:26:39;;;;;;;6.30;4.10;;;;;;;;;;5042720;28;20021;-69
2021/07/01 11:29:09;;;;;;;9.93;4.75;;;;;;;;;;5048207;28;20029;-69
2021/07/01 11:31:46;;;;;;;6.63;3.97;;;;;;;;;;5045690;28;20021;-69
2021/07/01 11:34:17;;;;;;;6.75;4.68;;;;;;;;;;5044126;28;20458;-68
2021/07/01 11:36:51;;;;;;;5.57;4.18;;;;;;;;;;5046700;28;20095;-70
2021/07/01 11:39:23;;;;;;;9.80;4.88;;;;;;;;;;5041918;28;20037;-69
2021/07/01 11:41:49;;;;;;;4.50;3.65;;;;;;;;;;5038087;28;20248;-69
2021/07/01 11:44:14;;;;;;;7.00;4.03;;;;;;;;;;5044007;28;20087;-68
2021/07/01 11:46:42;;;;;;;7.28;3.67;;;;;;;;;;5045774;28;20496;-69
2021/07/01 11:49:08;;;;;;;4.35;3.13;;;;;;;;;;5043820;28;20036;-68
2021/07/01 11:51:34;;;;;;;3.97;3.20;;;;;;;;;;5046663;28;20104;-69
2021/07/01 11:54:00;;;;;;;4.43;3.00;;;;;;;;;;5043008;28;20036;-69
2021/07/01 11:56:26;;;;;;;5.43;3.13;;;;;;;;;;5049067;28;20044;-69
2021/07/01 11:58:52;;;;;;;7.47;3.30;;;;;;;;;;5046590;28;20038;-69
2021/07/01 12:01:18;;;;;;;7.45;3.63;;;;;;;;;;5040905;28;20108;-69
2021/07/01 12:03:50;;;;;;;4.38;3.50;;;;;;;;;;5043553;28;20021;-68
2021/07/01 12:06:40;;;;;;;4.20;3.42;;;;;;;;;;5047277;28;20439;-69
2021/07/01 12:09:06;;;;;;;3.67;2.92;;;;;;;;;;5040112;28;20036;-69
2021/07/01 12:11:31;;;;;;;4.93;3.42;;;;;;;;;;5042058;28;20029;-70
2021/07/01 12:13:57;;;;;;;6.93;4.03;;;;;;;;;;5040548;28;20389;-69
2021/07/01 12:16:22;;;;;;;6.50;4.45;;;;;;;;;;5040376;28;20029;-70
2021/07/01 12:18:53;;;;;;;5.90;4.22;;;;;;;;;;5041085;28;20033;-70
2021/07/01 12:21:22;;;;;;;6.95;4.47;;;;;;;;;;5046126;28;20080;-71
2021/07/01 12:24:00;;;;;;;8.57;5.10;;;;;;;;;;5044748;28;20029;-69
2021/07/01 12:26:29;;;;;;;7.30;4.85;;;;;;;;;;5038704;28;20032;-71
2021/07/01 12:28:54;;;;;;;8.63;5.25;;;;;;;;;;5041255;28;20040;-73
2021/07/01 12:31:24;;;;;;;8.02;6.00;;;;;;;;;;5041750;28;20037;-72
2021/07/01 12:34:00;;;;;;;10.15;6.30;;;;;;;;;;5038369;28;20025;-71
2021/07/01 12:36:47;;;;;;;15.25;7.30;;;;;;;;;;5038667;28;20037;-69
2021/07/01 12:39:16;;;;;;;12.85;8.15;;;;;;;;;;5042460;28;20027;-69
2021/07/01 12:41:41;;;;;;;10.48;6.85;;;;;;;;;;5040951;28;20021;-69
2021/07/01 12:44:34;;;;;;;15.48;7.57;;;;;;;;;;5041763;28;20138;-70
2021/07/01 12:47:08;;;;;;;20.10;9.40;;;;;;;;;;5040190;28;20053;-66
2021/07/01 12:49:37;;;;;;;17.67;9.65;;;;;;;;;;5042640;28;20389;-69
2021/07/01 12:52:12;;;;;;;19.98;9.57;;;;;;;;;;5043851;28;20029;-68
2021/07/01 12:54:37;;;;;;;25.52;10.25;;;;;;;;;;5038346;28;20025;-69
2021/07/01 12:57:08;;;;;;;22.70;10.90;;;;;;;;;;5049337;28;20021;-69
2021/07/01 12:59:39;;;;;;;24.00;11.70;;;;;;;;;;5045478;28;20120;-70
2021/07/01 13:02:07;;;;;;;28.70;13.82;;;;;;;;;;5040826;28;20035;-70
2021/07/01 13:04:35;;;;;;;27.90;12.32;;;;;;;;;;5041040;28;20032;-69
2021/07/01 13:07:01;;;;;;;32.28;13.43;;;;;;;;;;5034129;28;20546;-70
2021/07/01 13:09:32;;;;;;;28.17;13.65;;;;;;;;;;5046480;28;20096;-69
2021/07/01 13:11:59;;;;;;;40.70;15.88;;;;;;;;;;5042640;28;20041;-67
2021/07/01 13:14:25;;;;;;;40.67;15.77;;;;;;;;;;5036042;28;20033;-70
2021/07/01 13:17:05;;;;;;;36.25;15.45;;;;;;;;;;5040205;28;20513;-70
2021/07/01 13:19:31;;;;;;;38.65;16.63;;;;;;;;;;5038553;28;20554;-70
2021/07/01 13:22:00;;;;;;;38.95;16.55;;;;;;;;;;5044573;28;20035;-70
2021/07/01 13:24:27;;;;;;;44.97;17.02;;;;;;;;;;5037442;28;20037;-69
2021/07/01 13:26:55;;;;;;;40.53;17.73;;;;;;;;;;5040833;28;20032;-70
2021/07/01 13:29:53;;;;;;;37.63;17.35;;;;;;;;;;5040719;28;20079;-68
2021/07/01 13:32:18;;;;;;;45.38;19.50;;;;;;;;;;5037827;28;20033;-70
2021/07/01 13:34:44;;;;;;;49.35;18.23;;;;;;;;;;5042355;28;20025;-69
2021/07/01 13:37:26;;;;;;;49.80;20.88;;;;;;;;;;5041693;28;20029;-70
2021/07/01 13:39:53;;;;;;;60.05;20.45;;;;;;;;;;5038628;28;20036;-70
2021/07/01 13:42:26;;;;;;;59.85;20.77;;;;;;;;;;5040441;28;20398;-69
2021/07/01 13:45:01;;;;;;;61.78;21.08;;;;;;;;;;5038605;28;20087;-68
2021/07/01 13:47:28;;;;;;;69.55;22.05;;;;;;;;;;5039147;28;20033;-69
2021/07/01 13:49:53;;;;;;;59.67;23.20;;;;;;;;;;5042010;28;20021;-71
2021/07/01 13:52:19;;;;;;;49.65;21.77;;;;;;;;;;5036719;28;20029;-69
2021/07/01 13:54:45;;;;;;;58.70;21.77;;;;;;;;;;5043987;28;20083;-70
2021/07/01 13:57:10;;;;;;;61.40;21.52;;;;;;;;;;5038294;28;20049;-71
2021/07/01 13:59:36;;;;;;;54.05;21.65;;;;;;;;;;5040184;28;20034;-69
2021/07/01 14:02:17;;;;;;;64.53;20.92;;;;;;;;;;5037401;28;20550;-69
2021/07/01 14:04:43;;;;;;;57.83;21.20;;;;;;;;;;5038781;28;20029;-69
2021/07/01 14:07:09;;;;;;;61.08;20.02;;;;;;;;;;5041227;28;20392;-70
2021/07/01 14:09:34;;;;;;;65.60;21.20;;;;;;;;;;5047163;28;20021;-69
2021/07/01 14:12:00;;;;;;;69.18;23.10;;;;;;;;;;5036444;28;20040;-70
2021/07/01 14:14:25;;;;;;;60.75;22.45;;;;;;;;;;5041397;28;20022;-70
2021/07/01 14:16:50;;;;;;;54.95;21.38;;;;;;;;;;5034203;28;20041;-70
2021/07/01 14:19:17;;;;;;;64.30;21.40;;;;;;;;;;5038888;28;20022;-69
2021/07/01 14:21:51;;;;;;;59.65;20.00;;;;;;;;;;5040930;28;20052;-72
2021/07/01 14:24:24;;;;;;;52.78;20.75;;;;;;;;;;5041633;28;20033;-70
2021/07/01 14:26:51;;;;;;;;;;;;;;;;;;5037983;28;20044;-69
2021/07/01 14:29:18;;;;;;;56.42;19.48;;;;;;;;;;5041508;28;20400;-70
2021/07/01 14:31:44;;;;;;;60.67;19.17;;;;;;;;;;5035751;28;20052;-70
2021/07/01 14:34:10;;;;;;;56.08;19.30;;;;;;;;;;5035483;28;20482;-70